Eihoumaru No.65 — JD3328 — position and weather

sailwx.info

Track history (hours):
 
Tides and Currents Weather Stations Pressure Air Temp Water Temp Dewpoint Dewpoint Depression Visibility Wind Speed Wind Dir Waves Ship Positions

Eihoumaru No.65

Last reported at 2017-Oct-18 14:46 UTC. Time now 2017-Oct-19 22:03 UTC.
Position N 35°35' E 139°55'.

Length 62 m; draft 4.4 m.

Type: Tanker. MMSI: 431003364.

Date/timePositionNaut miles runAvg speedWind from/ knotsBaromVisibWave heightAir tempDewpointWater temp
2017-Oct-18 14:46N 35°35' E 139°55'4 2.8
2017-Oct-18 13:22N 35°32' E 139°53'411.8
2017-Oct-18 13:01N 35°28' E 139°50'611.3
2017-Oct-18 12:31N 35°24' E 139°46'511.0
2017-Oct-18 12:00N 35°18' E 139°44'510.8
2017-Oct-18 11:30N 35°13' E 139°47'611.5
2017-Oct-18 11:00N 35°08' E 139°45'611.4
2017-Oct-18 10:30N 35°04' E 139°40'  
2017-Oct-13 05:34N 34°37' E 134°58'114.4
2017-Oct-13 05:30N 34°38' E 134°59'613.3
2017-Oct-13 05:01N 34°36' E 135°07'611.5
2017-Oct-13 04:31N 34°34' E 135°13'611.6
2017-Oct-13 04:00N 34°33' E 135°20'4 0.8
2017-Oct-12 23:15N 34°31' E 135°25'1 3.2
2017-Oct-12 23:00N 34°31' E 135°24'0 0.0
2017-Oct-12 22:31N 34°31' E 135°24'0 0.0
2017-Oct-12 22:00N 34°31' E 135°24'0 0.0
2017-Oct-12 21:30N 34°31' E 135°24'0 0.0
2017-Oct-12 21:01N 34°31' E 135°24'0 0.1
2017-Oct-12 20:30N 34°31' E 135°24'0 0.0
2017-Oct-12 20:00N 34°31' E 135°24'0 0.1
2017-Oct-12 19:31N 34°31' E 135°24'0 0.0
2017-Oct-12 19:00N 34°31' E 135°24'0 0.1
2017-Oct-12 18:30N 34°31' E 135°24'0 0.0
2017-Oct-12 18:01N 34°31' E 135°24'0 0.1
2017-Oct-12 17:30N 34°31' E 135°24'0 0.0
2017-Oct-12 17:01N 34°31' E 135°24'0 0.0
2017-Oct-12 16:29N 34°31' E 135°24'0 0.0
2017-Oct-12 16:00N 34°31' E 135°24'0 0.0
2017-Oct-12 15:30N 34°31' E 135°24'0 0.0
2017-Oct-12 15:01N 34°31' E 135°24'0 0.0
2017-Oct-12 14:29N 34°31' E 135°24'0 0.0
2017-Oct-12 14:01N 34°31' E 135°24'0 0.0
2017-Oct-12 13:29N 34°31' E 135°24'0 0.0
2017-Oct-12 13:00N 34°31' E 135°24'0 0.0
2017-Oct-12 12:30N 34°31' E 135°24'0 0.0
2017-Oct-12 12:01N 34°31' E 135°24'0 0.0
2017-Oct-12 11:31N 34°31' E 135°24'0 0.0
2017-Oct-12 11:01N 34°31' E 135°24'0 0.0
2017-Oct-12 10:30N 34°31' E 135°24'0 0.0
2017-Oct-12 10:00N 34°31' E 135°24'0 0.0
2017-Oct-12 09:31N 34°31' E 135°24'0 0.0
2017-Oct-12 08:56N 34°31' E 135°24'0 0.0
2017-Oct-12 08:28N 34°31' E 135°24'0 0.0
2017-Oct-12 07:46N 34°31' E 135°24'0 0.0
2017-Oct-12 07:17N 34°31' E 135°24'0 0.0
2017-Oct-12 06:57N 34°31' E 135°24'0 0.0
2017-Oct-12 06:24N 34°31' E 135°24'0 0.0
2017-Oct-12 05:49N 34°31' E 135°24'0 0.1
2017-Oct-12 05:02N 34°31' E 135°24'0 0.2
2017-Oct-12 04:50N 34°31' E 135°24'0 0.0
2017-Oct-12 04:31N 34°31' E 135°24'0 0.1
2017-Oct-12 03:53N 34°31' E 135°24'0 0.1
2017-Oct-12 03:28N 34°31' E 135°24'0 0.1
2017-Oct-12 03:00N 34°31' E 135°24'0 0.0
2017-Oct-12 01:44N 34°31' E 135°24'3 7.6
2017-Oct-12 01:24N 34°33' E 135°23'512.7
2017-Oct-12 01:00N 34°37' E 135°19'3 6.7
2017-Oct-12 00:31N 34°40' E 135°18'0 0.0
2017-Oct-12 00:01N 34°40' E 135°18'0 0.0
2017-Oct-11 23:31N 34°40' E 135°18'0 0.0
2017-Oct-11 23:00N 34°40' E 135°18'0 0.0
2017-Oct-11 22:31N 34°40' E 135°18'0 0.9
2017-Oct-11 22:00N 34°40' E 135°17'5 9.4
2017-Oct-11 21:30N 34°36' E 135°14'611.8
2017-Oct-11 21:01N 34°35' E 135°07'  
2017-Oct-09 06:03N 34°10' E 134°56'112.6
2017-Oct-09 05:57N 34°10' E 134°57'510.9
2017-Oct-09 05:30N 34°09' E 135°03'4 0.7
2017-Oct-09 00:18N 34°07' E 135°07'0 0.1
2017-Oct-08 18:55N 34°08' E 135°08'0 0.1
2017-Oct-08 17:55N 34°08' E 135°08'  
Track history (hours):
 
Tides and Currents Weather Stations Pressure Air Temp Water Temp Dewpoint Dewpoint Depression Visibility Wind Speed Wind Dir Waves Ship Positions

Eihoumaru No.65

Last reported at 2017-Oct-18 14:46 UTC. Time now 2017-Oct-19 22:03 UTC.
Position N 35°35' E 139°55'.

Length 62 m; draft 4.4 m.

Type: Tanker. MMSI: 431003364.

Date/timePositionNaut miles runAvg speedWind from/ knotsBaromVisibWave heightAir tempDewpointWater temp
2017-Oct-18 14:46N 35°35' E 139°55'4 2.8
2017-Oct-18 13:22N 35°32' E 139°53'411.8
2017-Oct-18 13:01N 35°28' E 139°50'611.3
2017-Oct-18 12:31N 35°24' E 139°46'511.0
2017-Oct-18 12:00N 35°18' E 139°44'510.8
2017-Oct-18 11:30N 35°13' E 139°47'611.5
2017-Oct-18 11:00N 35°08' E 139°45'611.4
2017-Oct-18 10:30N 35°04' E 139°40'  
2017-Oct-13 05:34N 34°37' E 134°58'114.4
2017-Oct-13 05:30N 34°38' E 134°59'613.3
2017-Oct-13 05:01N 34°36' E 135°07'611.5
2017-Oct-13 04:31N 34°34' E 135°13'611.6
2017-Oct-13 04:00N 34°33' E 135°20'4 0.8
2017-Oct-12 23:15N 34°31' E 135°25'1 3.2
2017-Oct-12 23:00N 34°31' E 135°24'0 0.0
2017-Oct-12 22:31N 34°31' E 135°24'0 0.0
2017-Oct-12 22:00N 34°31' E 135°24'0 0.0
2017-Oct-12 21:30N 34°31' E 135°24'0 0.0
2017-Oct-12 21:01N 34°31' E 135°24'0 0.1
2017-Oct-12 20:30N 34°31' E 135°24'0 0.0
2017-Oct-12 20:00N 34°31' E 135°24'0 0.1
2017-Oct-12 19:31N 34°31' E 135°24'0 0.0
2017-Oct-12 19:00N 34°31' E 135°24'0 0.1
2017-Oct-12 18:30N 34°31' E 135°24'0 0.0
2017-Oct-12 18:01N 34°31' E 135°24'0 0.1
2017-Oct-12 17:30N 34°31' E 135°24'0 0.0
2017-Oct-12 17:01N 34°31' E 135°24'0 0.0
2017-Oct-12 16:29N 34°31' E 135°24'0 0.0
2017-Oct-12 16:00N 34°31' E 135°24'0 0.0
2017-Oct-12 15:30N 34°31' E 135°24'0 0.0
2017-Oct-12 15:01N 34°31' E 135°24'0 0.0
2017-Oct-12 14:29N 34°31' E 135°24'0 0.0
2017-Oct-12 14:01N 34°31' E 135°24'0 0.0
2017-Oct-12 13:29N 34°31' E 135°24'0 0.0
2017-Oct-12 13:00N 34°31' E 135°24'0 0.0
2017-Oct-12 12:30N 34°31' E 135°24'0 0.0
2017-Oct-12 12:01N 34°31' E 135°24'0 0.0
2017-Oct-12 11:31N 34°31' E 135°24'0 0.0
2017-Oct-12 11:01N 34°31' E 135°24'0 0.0
2017-Oct-12 10:30N 34°31' E 135°24'0 0.0
2017-Oct-12 10:00N 34°31' E 135°24'0 0.0
2017-Oct-12 09:31N 34°31' E 135°24'0 0.0
2017-Oct-12 08:56N 34°31' E 135°24'0 0.0
2017-Oct-12 08:28N 34°31' E 135°24'0 0.0
2017-Oct-12 07:46N 34°31' E 135°24'0 0.0
2017-Oct-12 07:17N 34°31' E 135°24'0 0.0
2017-Oct-12 06:57N 34°31' E 135°24'0 0.0
2017-Oct-12 06:24N 34°31' E 135°24'0 0.0
2017-Oct-12 05:49N 34°31' E 135°24'0 0.1
2017-Oct-12 05:02N 34°31' E 135°24'0 0.2
2017-Oct-12 04:50N 34°31' E 135°24'0 0.0
2017-Oct-12 04:31N 34°31' E 135°24'0 0.1
2017-Oct-12 03:53N 34°31' E 135°24'0 0.1
2017-Oct-12 03:28N 34°31' E 135°24'0 0.1
2017-Oct-12 03:00N 34°31' E 135°24'0 0.0
2017-Oct-12 01:44N 34°31' E 135°24'3 7.6
2017-Oct-12 01:24N 34°33' E 135°23'512.7
2017-Oct-12 01:00N 34°37' E 135°19'3 6.7
2017-Oct-12 00:31N 34°40' E 135°18'0 0.0
2017-Oct-12 00:01N 34°40' E 135°18'0 0.0
2017-Oct-11 23:31N 34°40' E 135°18'0 0.0
2017-Oct-11 23:00N 34°40' E 135°18'0 0.0
2017-Oct-11 22:31N 34°40' E 135°18'0 0.9
2017-Oct-11 22:00N 34°40' E 135°17'5 9.4
2017-Oct-11 21:30N 34°36' E 135°14'611.8
2017-Oct-11 21:01N 34°35' E 135°07'  
2017-Oct-09 06:03N 34°10' E 134°56'112.6
2017-Oct-09 05:57N 34°10' E 134°57'510.9
2017-Oct-09 05:30N 34°09' E 135°03'4 0.7
2017-Oct-09 00:18N 34°07' E 135°07'0 0.1
2017-Oct-08 18:55N 34°08' E 135°08'0 0.1
2017-Oct-08 17:55N 34°08' E 135°08'  

Dump ship's entire track history